DAUO/ELU METAR and TAF weather

Enter ICAO airport designator
Station Type Date Time Source
DAUO METAR 2020/09/22 01:00 UTC NOAA

DAUO 220100Z 11007KT 9999 FEW030CB SCT033 BKN233 28/14 Q1012


Station Type Date Time Source
DAUO Decoded METAR 2020/09/22 01:00 UTC NOAA

El Oued, Algeria (DAUO) 33-30N 006-07E 63M
Sep 21, 2020 - 09:00 PM EDT / 2020.09.22 0100 UTC
Wind: from the ESE (110 degrees) at 8 MPH (7 KT):0
Visibility: greater than 7 mile(s):0
Sky conditions: mostly cloudy
Weather: Cumulonimbus clouds observed
Temperature: 82 F (28 C)
Dew Point: 57 F (14 C)
Relative Humidity: 42%
Pressure (altimeter): 29.88 in. Hg (1012 hPa)
ob: DAUO 220100Z 11007KT 9999 FEW030CB SCT033 BKN233 28/14 Q1012
cycle: 1

Station Type Date Time Source
DAUO TAF 2017/11/09 18:03 UTC NOAA

TAF DAUO 091700Z 0918/1009 28010KT 9999 SCT033 SCT100 PROB30
TEMPO 0918/0924 28015G25KT 5000 -TSRA FEW036CB

Example: see airport list